Talisheek, Louisiana
Current Conditions -  °F | °C
As of 10:53 PM on Friday 31 Oct 2014 (Local Time) from KASD Reporting Station
Clear Clear  
Wind Chill: 57°   Ceiling: Unl
Heat Index: 57°   Visibility: 10mi
Dew Point: 43°   Wind: 10mph
Humidity: 59%   Direction: 360°N
Pressure: 30.19"   Gusts: NA
Location:  30.53°N, 89.88°W
Report Text: KASD 010353Z AUTO 36009KT 10SM CLR 14/06 A3019 RMK AO2 SLP224 T01390061
Loading
Personal Weather Stations






























Interactive Weather Map
Tropical Storm Tracking
New forecast layout! Learn more

10-Day Weather Forecast

Advertisements
Track Severe Weather on mobile